Portada
METAR-TAF:

METAR-TAF

Aeroports :

Xarm al xeic, Egipte

latitud: 27-58N, longitud: 034-23E, altitud: 50 m

Observació

L'informe es va fer fa 54 minuts, a les 22:00 UTC
Vent calma
Temperatura 25°C
Humitat 83%
Pressió 1011 hPa
Visibilitat 10 km o més
sense núvols per sota de 1500 mi sense presència de cumulonimbus.

METAR: HESH 132200Z 00000KT CAVOK 25/22 Q1011 NOSIG

Hora: 00:54 (22:54 UTC)

Pronòstic

L'informe es va fer fa 5 hores i 54 minuts, a les 17:00 UTC
Pronòstic vàlid del 13 a les 18 UTC al 14 a les 24 UTC
Vent 5 kt del Sud
Visibilitat: 6000 m

TAF: HESH 131700Z 1318/1424 17005KT 6000 NSC

Observacions i pronòstics meteorològics de més de 4000 aeroports (METAR i TAF).

Les estacions disponibles són els punts grocs i vermells al mapa.

Posi el ratolí al punt desitjat per veure el nom de l'estació.

Feu clic per veure les observacions i els pronòstics meteorològics.

Per canviar el mapa: feu clic els botons verds amb una creu de color negre per apropar; al botó verd amb un guió per allunyar la imatge; o en les fletxes verdes per a mapes adjacents.


METAR-TAF: